Huesca, Spain
Current Conditions -  °F | °C
As of 7:00 AM on Wednesday 22 Oct 2014 (Local Time) from LEHC Reporting Station
Clear Clear  
Wind Chill: 13°   Ceiling: Unl
Heat Index: 13°   Visibility: 6mi
Dew Point:   Wind: 29mph
Humidity: 54%   Direction: 290°WNW
Pressure: 30.21"   Gusts: NA
Location:  42.14°N, 0.41°W
Report Text: LEHC 220500Z AUTO 29025KT CAVOK 13/04 Q1023
Loading
Personal Weather Stations






























Interactive Weather Map
Tropical Storm Tracking
New forecast layout! Learn more

10-Day Weather Forecast

Advertisements
Track Severe Weather on mobile